createdAt,value
2022-07-27T00:01:03.739Z,99.90
2022-07-27T00:03:31.592Z,1.00
2022-07-27T00:05:59.476Z,1.00
2022-07-27T00:08:27.395Z,99.90
2022-07-27T00:10:57.296Z,99.90
2022-07-27T00:13:25.226Z,99.90
2022-07-27T00:15:53.300Z,99.90
2022-07-27T00:18:21.416Z,99.90
2022-07-27T00:20:49.250Z,99.90
2022-07-27T00:23:17.050Z,99.90
2022-07-27T00:25:44.943Z,1.00
2022-07-27T00:28:14.134Z,1.00
2022-07-27T00:30:42.036Z,1.00
2022-07-27T00:33:09.884Z,1.00
2022-07-27T00:35:38.450Z,1.00
2022-07-27T00:38:06.315Z,1.00
2022-07-27T00:40:34.150Z,1.00
2022-07-27T00:43:01.988Z,1.00
2022-07-27T00:45:31.194Z,1.00
2022-07-27T00:47:59.041Z,1.00
2022-07-27T00:50:26.922Z,1.00
2022-07-27T00:52:55.451Z,1.00
2022-07-27T00:55:23.657Z,1.00
2022-07-27T00:57:58.509Z,1.00
2022-07-27T01:00:27.631Z,1.00
2022-07-27T01:02:57.657Z,1.00
2022-07-27T01:05:35.941Z,1.00
2022-07-27T01:08:05.245Z,1.00
2022-07-27T01:10:33.755Z,1.00
2022-07-27T01:13:01.834Z,1.00
2022-07-27T01:15:29.723Z,1.00
2022-07-27T01:17:58.950Z,1.00
2022-07-27T01:20:26.907Z,1.00
2022-07-27T01:22:56.096Z,1.00
2022-07-27T01:25:23.949Z,1.00
2022-07-27T01:27:51.862Z,1.00
2022-07-27T01:30:30.329Z,1.00
2022-07-27T01:33:02.032Z,1.00
2022-07-27T01:35:29.944Z,1.00
2022-07-27T01:37:59.386Z,1.00
2022-07-27T01:40:27.558Z,1.00
2022-07-27T01:42:55.423Z,1.00
2022-07-27T01:45:23.504Z,1.00
2022-07-27T01:47:51.376Z,1.00
2022-07-27T01:50:19.280Z,1.00
2022-07-27T01:52:47.161Z,1.00
2022-07-27T01:55:16.366Z,1.00
2022-07-27T01:57:44.226Z,1.00
2022-07-27T02:00:12.599Z,1.00
2022-07-27T02:02:40.942Z,1.00
2022-07-27T02:05:11.845Z,1.00
2022-07-27T02:07:40.640Z,25.20
2022-07-27T02:10:08.969Z,8.30
2022-07-27T02:12:37.463Z,1.00
2022-07-27T02:15:06.614Z,1.00
2022-07-27T02:17:35.248Z,1.00
2022-07-27T02:20:03.467Z,1.00
2022-07-27T02:22:31.311Z,28.00
2022-07-27T02:24:59.310Z,43.50
2022-07-27T02:27:27.288Z,99.90
2022-07-27T02:29:57.936Z,96.60
2022-07-27T02:32:25.928Z,97.70
2022-07-27T02:34:53.861Z,79.30
2022-07-27T02:37:21.915Z,16.60
2022-07-27T02:39:49.747Z,86.50
2022-07-27T02:42:17.578Z,39.80
2022-07-27T02:44:45.418Z,99.90
2022-07-27T02:47:14.583Z,99.90
2022-07-27T02:49:42.453Z,99.90
2022-07-27T02:52:10.365Z,99.90
2022-07-27T02:54:38.227Z,99.90
2022-07-27T02:57:06.075Z,99.90
2022-07-27T02:59:33.916Z,99.90
2022-07-27T03:02:01.849Z,99.90
2022-07-27T03:04:31.176Z,99.90
2022-07-27T03:06:59.046Z,99.90
2022-07-27T03:09:32.848Z,99.90
2022-07-27T03:12:01.444Z,99.90
2022-07-27T03:14:29.510Z,99.90
2022-07-27T03:16:57.342Z,99.90
2022-07-27T03:19:30.045Z,99.90
2022-07-27T03:21:59.593Z,99.90
2022-07-27T03:24:27.433Z,99.90
2022-07-27T03:26:55.322Z,99.90
2022-07-27T03:29:23.176Z,99.90
2022-07-27T03:31:51.013Z,99.90
2022-07-27T03:34:18.854Z,99.90
2022-07-27T03:36:46.670Z,99.90
2022-07-27T03:39:16.089Z,99.90
2022-07-27T03:41:43.959Z,99.90
2022-07-27T03:44:11.833Z,99.90
2022-07-27T03:46:39.659Z,99.90
2022-07-27T03:49:14.495Z,99.90
2022-07-27T03:51:43.288Z,99.90
2022-07-27T03:54:11.634Z,99.90
2022-07-27T03:56:40.889Z,99.90
2022-07-27T03:59:09.148Z,99.90
2022-07-27T04:01:37.240Z,99.90
2022-07-27T04:04:05.214Z,1.00
2022-07-27T04:06:33.052Z,99.90
2022-07-27T04:09:13.860Z,99.90
2022-07-27T04:11:50.568Z,99.90
2022-07-27T04:14:19.557Z,99.90
2022-07-27T04:16:47.569Z,1.00
2022-07-27T04:19:16.079Z,1.00
2022-07-27T04:21:44.199Z,1.00
2022-07-27T04:24:12.128Z,1.00
2022-07-27T04:26:40.032Z,1.00
2022-07-27T04:29:09.462Z,1.00
2022-07-27T04:31:37.678Z,1.00
2022-07-27T04:34:05.518Z,1.00
2022-07-27T04:36:33.330Z,99.90
2022-07-27T04:39:01.143Z,1.00
2022-07-27T04:41:30.343Z,99.90
2022-07-27T04:43:58.567Z,99.90
2022-07-27T04:46:29.683Z,99.90
2022-07-27T04:48:57.964Z,99.90
2022-07-27T04:51:26.828Z,99.90
2022-07-27T04:53:58.380Z,99.90
2022-07-27T04:56:26.825Z,72.90
2022-07-27T04:58:54.714Z,1.00
2022-07-27T05:01:23.827Z,1.00
2022-07-27T05:03:53.279Z,1.00
2022-07-27T05:06:21.325Z,1.00
2022-07-27T05:08:49.173Z,1.00
2022-07-27T05:11:17.032Z,99.90
2022-07-27T05:13:44.867Z,1.00
2022-07-27T05:16:12.828Z,1.00
2022-07-27T05:18:42.801Z,1.00
2022-07-27T05:21:12.245Z,1.00
2022-07-27T05:23:40.092Z,1.00
2022-07-27T05:26:07.952Z,99.90
2022-07-27T05:28:35.856Z,99.90
2022-07-27T05:31:03.681Z,99.90
2022-07-27T05:33:31.576Z,99.90
2022-07-27T05:35:59.464Z,1.00
2022-07-27T05:38:28.697Z,99.90
2022-07-27T05:40:56.526Z,99.90
2022-07-27T05:43:24.415Z,99.90
2022-07-27T05:45:52.279Z,12.40
2022-07-27T05:48:20.176Z,1.00
2022-07-27T05:50:48.107Z,99.90
2022-07-27T05:53:15.953Z,99.90
2022-07-27T05:55:58.926Z,99.90
2022-07-27T05:58:27.791Z,99.90
2022-07-27T06:00:56.441Z,1.00
2022-07-27T06:03:24.655Z,1.00
2022-07-27T06:05:52.643Z,99.90
2022-07-27T06:08:19.576Z,93.00
2022-07-27T06:10:48.779Z,99.90
2022-07-27T06:13:16.656Z,99.90
2022-07-27T06:15:44.529Z,99.90
2022-07-27T06:18:18.192Z,1.00
2022-07-27T06:20:46.888Z,99.90
2022-07-27T06:23:14.730Z,99.90
2022-07-27T06:25:42.597Z,99.90
2022-07-27T06:28:11.811Z,1.00
2022-07-27T06:30:39.662Z,1.00
2022-07-27T06:33:08.101Z,1.00
2022-07-27T06:35:38.985Z,99.90
2022-07-27T06:38:07.169Z,1.00
2022-07-27T06:40:35.045Z,1.00
2022-07-27T06:43:02.919Z,99.90
2022-07-27T06:45:32.295Z,99.90
2022-07-27T06:48:00.168Z,99.90
2022-07-27T06:50:28.314Z,99.90
2022-07-27T06:52:56.209Z,99.90
2022-07-27T06:55:24.054Z,63.50
2022-07-27T06:57:51.928Z,99.90
2022-07-27T07:00:19.746Z,1.00
2022-07-27T07:02:56.445Z,1.00
2022-07-27T07:05:24.820Z,1.00
2022-07-27T07:07:52.675Z,1.00
2022-07-27T07:10:21.757Z,99.90
2022-07-27T07:12:55.563Z,99.90
2022-07-27T07:15:24.545Z,99.90
2022-07-27T07:17:52.473Z,99.90
2022-07-27T07:20:21.656Z,99.90
2022-07-27T07:22:49.525Z,99.90
2022-07-27T07:25:17.978Z,22.20
2022-07-27T07:27:45.835Z,1.00
2022-07-27T07:30:13.930Z,1.00
2022-07-27T07:32:41.816Z,99.90
2022-07-27T07:35:10.160Z,99.90
2022-07-27T07:37:39.512Z,99.90
2022-07-27T07:40:40.000Z,99.90
2022-07-27T07:42:57.822Z,99.90
2022-07-27T07:45:25.723Z,72.30
2022-07-27T07:47:53.977Z,14.70
2022-07-27T07:50:22.472Z,1.20
2022-07-27T07:52:53.070Z,1.00
2022-07-27T07:55:21.304Z,1.00
2022-07-27T07:57:50.583Z,1.00
2022-07-27T08:00:18.849Z,1.00
2022-07-27T08:02:47.463Z,1.00
2022-07-27T08:05:15.688Z,1.00
2022-07-27T08:07:44.080Z,1.00
2022-07-27T08:10:14.168Z,1.00
2022-07-27T08:12:43.847Z,1.00
2022-07-27T08:15:12.416Z,1.00
2022-07-27T08:17:40.284Z,99.90
2022-07-27T08:20:08.988Z,99.90
2022-07-27T08:22:37.072Z,99.90
2022-07-27T08:25:05.909Z,99.90
2022-07-27T08:27:40.284Z,99.90
2022-07-27T08:30:10.514Z,99.90
2022-07-27T08:32:49.289Z,99.90
2022-07-27T08:35:17.895Z,99.90
2022-07-27T08:37:45.779Z,99.90
2022-07-27T08:43:05.187Z,99.90
2022-07-27T08:45:33.613Z,99.90
2022-07-27T08:48:01.615Z,99.90
2022-07-27T08:50:30.589Z,99.90
2022-07-27T08:53:03.128Z,99.90
2022-07-27T08:55:32.160Z,99.90
2022-07-27T08:58:03.123Z,99.90
2022-07-27T09:00:33.733Z,99.90
2022-07-27T09:03:01.853Z,99.90
2022-07-27T09:05:37.503Z,99.90
2022-07-27T09:08:12.308Z,99.90
2022-07-27T09:10:40.135Z,99.90
2022-07-27T09:13:18.036Z,99.90
2022-07-27T09:16:15.596Z,99.90
2022-07-27T09:18:37.543Z,99.90
2022-07-27T09:21:09.079Z,99.90
2022-07-27T09:23:37.495Z,99.90
2022-07-27T09:26:29.666Z,99.90
2022-07-27T09:29:00.327Z,99.90
2022-07-27T09:31:29.783Z,99.90
2022-07-27T09:33:58.859Z,99.90
2022-07-27T09:36:28.138Z,99.90
2022-07-27T09:39:01.882Z,99.90
2022-07-27T09:41:39.903Z,99.90
2022-07-27T09:46:57.181Z,61.90
2022-07-27T09:49:29.172Z,55.20
2022-07-27T09:52:00.553Z,44.00
2022-07-27T09:54:29.794Z,41.60
2022-07-27T09:57:04.210Z,35.40
2022-07-27T09:59:32.671Z,15.20
2022-07-27T10:02:02.076Z,1.00
2022-07-27T10:04:30.064Z,1.00
2022-07-27T10:07:03.413Z,1.00
2022-07-27T10:09:34.850Z,1.00
2022-07-27T10:12:04.664Z,1.00
2022-07-27T10:14:33.324Z,1.00
2022-07-27T10:17:03.135Z,1.00
2022-07-27T10:19:35.223Z,1.00
2022-07-27T10:22:04.735Z,1.00
2022-07-27T10:24:34.881Z,1.00
2022-07-27T10:27:18.671Z,1.00
2022-07-27T10:29:47.308Z,1.00
2022-07-27T10:32:23.891Z,1.00
2022-07-27T10:34:51.778Z,1.00
2022-07-27T10:37:25.142Z,1.00
2022-07-27T10:40:14.148Z,1.00
2022-07-27T10:42:42.562Z,1.00
2022-07-27T10:45:10.833Z,1.00
2022-07-27T10:47:45.783Z,1.00
2022-07-27T10:50:20.371Z,1.00
2022-07-27T10:52:48.729Z,1.00
2022-07-27T10:55:31.488Z,1.00
2022-07-27T10:57:59.690Z,1.00
2022-07-27T11:00:58.796Z,1.00
2022-07-27T11:03:28.999Z,1.00
2022-07-27T11:06:14.626Z,1.00
2022-07-27T11:08:47.801Z,1.00
2022-07-27T11:11:17.623Z,1.00
2022-07-27T11:13:46.058Z,1.00
2022-07-27T11:16:23.981Z,1.00
2022-07-27T11:18:55.881Z,1.00
2022-07-27T11:21:26.816Z,1.00
2022-07-27T11:23:55.649Z,1.00
2022-07-27T11:26:24.488Z,1.00
2022-07-27T11:28:52.677Z,1.00
2022-07-27T11:31:38.672Z,1.00
2022-07-27T11:34:11.579Z,1.00
2022-07-27T11:36:41.316Z,1.00
2022-07-27T11:39:14.795Z,1.00
2022-07-27T11:44:31.826Z,1.00
2022-07-27T11:47:02.363Z,1.00
2022-07-27T11:49:32.490Z,1.00
2022-07-27T11:52:01.336Z,1.00
2022-07-27T11:54:29.833Z,1.00
2022-07-27T11:56:58.266Z,1.00
2022-07-27T11:59:27.660Z,1.00
2022-07-27T12:01:56.180Z,1.00
2022-07-27T12:04:25.727Z,1.00
2022-07-27T12:07:00.410Z,1.00
2022-07-27T12:09:38.702Z,1.00
2022-07-27T12:12:11.935Z,1.00
2022-07-27T12:14:41.558Z,1.00
2022-07-27T12:17:13.711Z,1.00
2022-07-27T12:19:41.876Z,1.00
2022-07-27T12:22:11.231Z,1.00
2022-07-27T12:24:40.034Z,1.00
2022-07-27T12:27:08.961Z,1.00
2022-07-27T12:29:56.182Z,1.00
2022-07-27T12:32:24.202Z,1.00
2022-07-27T12:34:52.216Z,1.00
2022-07-27T12:37:21.763Z,1.00
2022-07-27T12:39:50.080Z,1.00
2022-07-27T12:42:17.958Z,1.00
2022-07-27T12:44:46.462Z,1.00
2022-07-27T12:47:32.150Z,1.00
2022-07-27T12:50:00.653Z,1.00
2022-07-27T12:52:29.877Z,1.00
2022-07-27T12:54:57.764Z,1.00
2022-07-27T12:57:53.395Z,1.00
2022-07-27T13:00:15.384Z,1.00
2022-07-27T13:02:43.494Z,1.00
2022-07-27T13:05:12.274Z,1.00
2022-07-27T13:07:43.099Z,1.00
2022-07-27T13:10:11.844Z,1.00
2022-07-27T13:12:39.749Z,1.00
2022-07-27T13:15:09.409Z,1.00
2022-07-27T13:17:37.686Z,1.00
2022-07-27T13:20:07.854Z,1.00
2022-07-27T13:22:36.118Z,1.00
2022-07-27T13:25:16.058Z,1.00
2022-07-27T13:27:44.896Z,1.00
2022-07-27T13:30:13.422Z,1.00
2022-07-27T13:32:41.759Z,1.00
2022-07-27T13:35:12.259Z,1.00
2022-07-27T13:37:40.158Z,1.00
2022-07-27T13:40:10.320Z,1.00
2022-07-27T13:42:38.270Z,1.00
2022-07-27T13:45:10.321Z,1.00
2022-07-27T13:47:39.274Z,1.00
2022-07-27T13:50:12.102Z,1.00
2022-07-27T13:52:46.034Z,1.00
2022-07-27T13:55:15.809Z,1.00
2022-07-27T13:57:43.729Z,1.00
2022-07-27T14:00:12.219Z,1.00
2022-07-27T14:02:40.939Z,1.00
2022-07-27T14:05:13.167Z,1.00
2022-07-27T14:07:42.057Z,1.00
2022-07-27T14:10:28.802Z,1.00
2022-07-27T14:13:01.816Z,1.00
2022-07-27T14:15:53.601Z,1.00
2022-07-27T14:18:23.221Z,1.00
2022-07-27T14:20:51.077Z,1.00
2022-07-27T14:23:18.963Z,1.00
2022-07-27T14:25:46.929Z,1.00
2022-07-27T14:28:16.191Z,1.00
2022-07-27T14:30:44.176Z,1.00
2022-07-27T14:33:12.039Z,1.00
2022-07-27T14:35:40.836Z,1.00
2022-07-27T14:38:09.462Z,1.00
2022-07-27T14:40:37.772Z,1.00
2022-07-27T14:43:05.636Z,1.00
2022-07-27T14:45:45.413Z,1.00
2022-07-27T14:48:20.373Z,1.00
2022-07-27T14:50:51.100Z,1.00
2022-07-27T14:53:18.985Z,1.00
2022-07-27T14:55:46.846Z,1.00
2022-07-27T14:58:14.701Z,1.00
2022-07-27T15:00:43.930Z,1.00
2022-07-27T15:03:14.808Z,1.00
2022-07-27T15:05:49.727Z,1.00
2022-07-27T15:08:19.086Z,1.00
2022-07-27T15:10:47.360Z,1.00
2022-07-27T15:13:15.709Z,1.00
2022-07-27T15:15:45.082Z,1.00
2022-07-27T15:18:12.930Z,1.00
2022-07-27T15:20:40.805Z,1.00
2022-07-27T15:23:08.835Z,1.00
2022-07-27T15:25:36.754Z,1.00
2022-07-27T15:28:04.795Z,1.00
2022-07-27T15:30:37.912Z,1.00
2022-07-27T15:33:07.870Z,1.00
2022-07-27T15:35:35.895Z,1.00
2022-07-27T15:38:03.904Z,1.00
2022-07-27T15:40:42.037Z,1.00
2022-07-27T15:43:11.733Z,1.00
2022-07-27T15:45:40.305Z,1.00
2022-07-27T15:48:10.214Z,1.00
2022-07-27T15:50:38.567Z,1.00
2022-07-27T15:53:06.966Z,1.00
2022-07-27T15:55:35.238Z,1.00
2022-07-27T15:58:05.122Z,1.00
2022-07-27T16:00:38.636Z,1.00
2022-07-27T16:03:09.255Z,1.00
2022-07-27T16:05:37.196Z,1.00
2022-07-27T16:08:05.280Z,1.00
2022-07-27T16:10:33.134Z,1.00
2022-07-27T16:13:01.406Z,1.00
2022-07-27T16:15:43.413Z,1.00
2022-07-27T16:18:12.851Z,1.00
2022-07-27T16:20:40.720Z,1.00
2022-07-27T16:23:17.711Z,1.00
2022-07-27T16:26:07.548Z,1.00
2022-07-27T16:28:38.962Z,1.00
2022-07-27T16:31:07.562Z,1.00
2022-07-27T16:33:36.828Z,1.00
2022-07-27T16:36:05.416Z,1.00
2022-07-27T16:38:33.365Z,1.00
2022-07-27T16:41:03.064Z,1.00
2022-07-27T16:43:38.524Z,1.00
2022-07-27T16:46:07.826Z,1.00
2022-07-27T16:48:41.898Z,1.00
2022-07-27T16:51:14.519Z,1.00
2022-07-27T16:53:43.288Z,1.00
2022-07-27T16:56:11.161Z,1.00
2022-07-27T16:58:39.390Z,1.00
2022-07-27T17:01:07.311Z,1.00
2022-07-27T17:03:35.193Z,1.00
2022-07-27T17:06:06.409Z,1.00
2022-07-27T17:08:35.079Z,1.00
2022-07-27T17:11:02.966Z,1.00
2022-07-27T17:13:34.829Z,1.00
2022-07-27T17:16:03.113Z,1.00
2022-07-27T17:18:37.207Z,1.00
2022-07-27T17:21:09.593Z,1.00
2022-07-27T17:23:39.659Z,1.00
2022-07-27T17:26:08.288Z,1.00
2022-07-27T17:28:38.846Z,1.00
2022-07-27T17:31:07.574Z,1.00
2022-07-27T17:33:35.479Z,1.00
2022-07-27T17:36:03.333Z,1.00
2022-07-27T17:38:32.582Z,1.00
2022-07-27T17:41:00.431Z,1.00
2022-07-27T17:43:28.292Z,1.00
2022-07-27T17:45:56.178Z,1.00
2022-07-27T17:48:24.127Z,1.00
2022-07-27T17:50:52.143Z,1.00
2022-07-27T17:53:20.027Z,1.00
2022-07-27T17:55:49.234Z,1.00
2022-07-27T17:58:17.361Z,1.00
2022-07-27T18:00:45.211Z,1.00
2022-07-27T18:03:15.359Z,1.00
2022-07-27T18:05:44.054Z,1.00
2022-07-27T18:08:11.988Z,1.00
2022-07-27T18:10:39.817Z,1.00
2022-07-27T18:13:09.071Z,1.00
2022-07-27T18:15:50.350Z,1.00
2022-07-27T18:18:19.586Z,1.00
2022-07-27T18:20:48.304Z,1.00
2022-07-27T18:23:16.414Z,1.00
2022-07-27T18:25:44.988Z,1.00
2022-07-27T18:28:16.278Z,1.00
2022-07-27T18:30:44.580Z,1.00
2022-07-27T18:33:12.487Z,1.00
2022-07-27T18:35:40.324Z,1.00
2022-07-27T18:38:09.168Z,1.00
2022-07-27T18:40:37.240Z,1.00
2022-07-27T18:43:05.808Z,1.00
2022-07-27T18:45:35.103Z,1.00
2022-07-27T18:48:02.959Z,1.00
2022-07-27T18:50:34.436Z,1.00
2022-07-27T18:53:05.057Z,1.00
2022-07-27T18:55:33.043Z,1.00
2022-07-27T18:58:00.891Z,1.00
2022-07-27T19:00:28.827Z,1.00
2022-07-27T19:02:58.542Z,1.00
2022-07-27T19:05:32.762Z,1.00
2022-07-27T19:08:13.348Z,1.00
2022-07-27T19:10:42.175Z,1.00
2022-07-27T19:13:10.577Z,1.00
2022-07-27T19:15:38.982Z,1.00
2022-07-27T19:18:08.715Z,1.00
2022-07-27T19:20:37.754Z,1.00
2022-07-27T19:23:05.754Z,1.00
2022-07-27T19:25:34.404Z,1.00
2022-07-27T19:28:02.496Z,1.00
2022-07-27T19:30:30.626Z,1.00
2022-07-27T19:32:58.546Z,1.00
2022-07-27T19:35:27.839Z,1.00
2022-07-27T19:37:55.703Z,1.00
2022-07-27T19:43:11.511Z,1.00
2022-07-27T19:45:39.387Z,1.00
2022-07-27T19:48:08.359Z,1.00
2022-07-27T19:50:37.593Z,1.00
2022-07-27T19:53:05.569Z,1.00
2022-07-27T19:55:33.483Z,1.00
2022-07-27T19:58:01.810Z,1.00
2022-07-27T20:00:30.146Z,1.00
2022-07-27T20:02:58.017Z,1.00
2022-07-27T20:05:25.946Z,1.00
2022-07-27T20:07:55.127Z,1.00
2022-07-27T20:10:23.219Z,1.00
2022-07-27T20:12:51.166Z,1.00
2022-07-27T20:15:19.010Z,1.00
2022-07-27T20:17:50.339Z,1.00
2022-07-27T20:20:18.220Z,1.00
2022-07-27T20:22:46.130Z,1.00
2022-07-27T20:25:15.584Z,1.00
2022-07-27T20:27:43.487Z,1.00
2022-07-27T20:30:14.479Z,1.00
2022-07-27T20:32:42.395Z,1.00
2022-07-27T20:35:10.487Z,1.00
2022-07-27T20:37:38.732Z,1.00
2022-07-27T20:40:07.572Z,1.00
2022-07-27T20:42:36.845Z,1.00
2022-07-27T20:45:10.018Z,1.00
2022-07-27T20:47:38.214Z,1.00
2022-07-27T20:50:07.063Z,1.00
2022-07-27T20:52:35.613Z,1.00
2022-07-27T20:55:03.457Z,1.00
2022-07-27T20:57:31.304Z,1.00
2022-07-27T21:00:00.550Z,1.00
2022-07-27T21:02:28.500Z,1.00
2022-07-27T21:04:56.350Z,1.00
2022-07-27T21:07:24.267Z,1.00
2022-07-27T21:09:52.126Z,1.00
2022-07-27T21:12:20.093Z,1.00
2022-07-27T21:14:47.916Z,1.00
2022-07-27T21:17:17.142Z,1.00
2022-07-27T21:19:44.977Z,1.00
2022-07-27T21:22:12.836Z,1.00
2022-07-27T21:24:40.702Z,1.00
2022-07-27T21:27:09.066Z,1.00
2022-07-27T21:29:36.946Z,1.00
2022-07-27T21:32:04.842Z,1.00
2022-07-27T21:34:34.373Z,1.00
2022-07-27T21:37:02.473Z,1.00
2022-07-27T21:39:30.349Z,1.00
2022-07-27T21:42:01.858Z,1.00
2022-07-27T21:44:30.324Z,1.00
2022-07-27T21:46:58.225Z,1.00
2022-07-27T21:49:34.175Z,1.00
2022-07-27T21:52:03.958Z,1.00
2022-07-27T21:54:31.878Z,1.00
2022-07-27T21:56:59.754Z,1.00
2022-07-27T21:59:27.638Z,1.00
2022-07-27T22:01:55.976Z,1.00
2022-07-27T22:04:23.946Z,1.00
2022-07-27T22:06:51.889Z,1.00
2022-07-27T22:09:21.159Z,1.00
2022-07-27T22:11:49.022Z,1.00
2022-07-27T22:14:17.235Z,1.00
2022-07-27T22:16:45.502Z,1.00
2022-07-27T22:19:14.149Z,1.00
2022-07-27T22:21:42.047Z,1.00
2022-07-27T22:24:10.146Z,1.00
2022-07-27T22:26:40.027Z,1.00
2022-07-27T22:29:07.929Z,1.00
2022-07-27T22:31:35.830Z,1.00
2022-07-27T22:34:03.740Z,1.00
2022-07-27T22:36:32.497Z,1.00
2022-07-27T22:39:00.575Z,1.00
2022-07-27T22:41:28.473Z,1.00
2022-07-27T22:43:57.684Z,1.00
2022-07-27T22:46:25.996Z,1.00
2022-07-27T22:48:54.070Z,1.00
2022-07-27T22:51:22.076Z,9.80
2022-07-27T22:53:49.906Z,7.30
2022-07-27T22:56:17.746Z,20.20
2022-07-27T22:58:45.592Z,32.00
2022-07-27T23:01:28.449Z,52.30
2022-07-27T23:04:03.172Z,48.50
2022-07-27T23:06:30.988Z,58.30
2022-07-27T23:08:58.861Z,63.20
2022-07-27T23:11:26.711Z,62.50
2022-07-27T23:13:54.566Z,70.60
2022-07-27T23:16:23.809Z,65.00
2022-07-27T23:18:51.687Z,94.40
2022-07-27T23:21:19.554Z,99.90
2022-07-27T23:23:51.062Z,99.90
2022-07-27T23:26:25.927Z,99.90
2022-07-27T23:28:54.227Z,99.90
2022-07-27T23:31:23.499Z,99.90
2022-07-27T23:33:51.481Z,99.90
2022-07-27T23:36:19.333Z,99.90
2022-07-27T23:38:47.672Z,99.90
2022-07-27T23:41:16.627Z,99.90
2022-07-27T23:43:45.046Z,99.90
2022-07-27T23:46:12.989Z,99.90
2022-07-27T23:48:42.364Z,99.90
2022-07-27T23:51:10.292Z,99.90
2022-07-27T23:53:38.139Z,99.90
2022-07-27T23:56:06.231Z,99.90
2022-07-27T23:58:34.073Z,99.90
